sensor_id;sensor_type;location;lat;lon;timestamp;P1;durP1;ratioP1;P2;durP2;ratioP2
4460;SDS011;2243;48.812;9.232;2024-03-22T00:02:00;21.13;;;13.53;;
4460;SDS011;2243;48.812;9.232;2024-03-22T00:04:30;17.37;;;12.73;;
4460;SDS011;2243;48.812;9.232;2024-03-22T00:07:00;17.60;;;12.90;;
4460;SDS011;2243;48.812;9.232;2024-03-22T00:09:30;17.80;;;13.20;;
4460;SDS011;2243;48.812;9.232;2024-03-22T00:12:00;16.73;;;14.07;;
4460;SDS011;2243;48.812;9.232;2024-03-22T00:14:30;20.00;;;12.43;;
4460;SDS011;2243;48.812;9.232;2024-03-22T00:16:59;26.17;;;12.87;;
4460;SDS011;2243;48.812;9.232;2024-03-22T00:19:29;18.53;;;12.93;;
4460;SDS011;2243;48.812;9.232;2024-03-22T00:21:59;21.40;;;13.50;;
4460;SDS011;2243;48.812;9.232;2024-03-22T00:24:29;15.60;;;12.47;;
4460;SDS011;2243;48.812;9.232;2024-03-22T00:27:00;18.30;;;12.80;;
4460;SDS011;2243;48.812;9.232;2024-03-22T00:29:29;19.00;;;12.17;;
4460;SDS011;2243;48.812;9.232;2024-03-22T00:31:59;15.57;;;11.73;;
4460;SDS011;2243;48.812;9.232;2024-03-22T00:34:29;25.20;;;14.33;;
4460;SDS011;2243;48.812;9.232;2024-03-22T00:36:59;20.77;;;13.50;;
4460;SDS011;2243;48.812;9.232;2024-03-22T00:39:30;23.23;;;14.60;;
4460;SDS011;2243;48.812;9.232;2024-03-22T00:42:00;20.67;;;14.67;;
4460;SDS011;2243;48.812;9.232;2024-03-22T00:44:29;17.23;;;13.30;;
4460;SDS011;2243;48.812;9.232;2024-03-22T00:46:59;19.90;;;14.40;;
4460;SDS011;2243;48.812;9.232;2024-03-22T00:49:32;22.37;;;14.97;;
4460;SDS011;2243;48.812;9.232;2024-03-22T00:52:02;21.07;;;15.40;;
4460;SDS011;2243;48.812;9.232;2024-03-22T00:54:32;18.20;;;13.63;;
4460;SDS011;2243;48.812;9.232;2024-03-22T00:57:02;25.33;;;14.20;;
4460;SDS011;2243;48.812;9.232;2024-03-22T00:59:32;21.33;;;12.70;;
4460;SDS011;2243;48.812;9.232;2024-03-22T01:02:03;17.73;;;12.83;;
4460;SDS011;2243;48.812;9.232;2024-03-22T01:04:33;23.80;;;12.67;;
4460;SDS011;2243;48.812;9.232;2024-03-22T01:07:03;21.60;;;12.27;;
4460;SDS011;2243;48.812;9.232;2024-03-22T01:09:33;16.20;;;11.07;;
4460;SDS011;2243;48.812;9.232;2024-03-22T01:12:03;13.40;;;11.00;;
4460;SDS011;2243;48.812;9.232;2024-03-22T01:14:33;17.87;;;12.93;;
4460;SDS011;2243;48.812;9.232;2024-03-22T01:17:03;17.93;;;11.40;;
4460;SDS011;2243;48.812;9.232;2024-03-22T01:19:33;16.90;;;12.47;;
4460;SDS011;2243;48.812;9.232;2024-03-22T01:22:03;18.60;;;11.63;;
4460;SDS011;2243;48.812;9.232;2024-03-22T01:24:33;22.03;;;13.27;;
4460;SDS011;2243;48.812;9.232;2024-03-22T01:27:03;16.43;;;11.20;;
4460;SDS011;2243;48.812;9.232;2024-03-22T01:29:33;16.50;;;11.93;;
4460;SDS011;2243;48.812;9.232;2024-03-22T01:32:03;15.37;;;10.77;;
4460;SDS011;2243;48.812;9.232;2024-03-22T01:34:33;14.77;;;11.37;;
4460;SDS011;2243;48.812;9.232;2024-03-22T01:37:04;14.83;;;11.10;;
4460;SDS011;2243;48.812;9.232;2024-03-22T01:39:34;13.87;;;10.47;;
4460;SDS011;2243;48.812;9.232;2024-03-22T01:42:04;21.73;;;12.13;;
4460;SDS011;2243;48.812;9.232;2024-03-22T01:44:34;19.87;;;13.30;;
4460;SDS011;2243;48.812;9.232;2024-03-22T01:47:04;15.70;;;12.13;;
4460;SDS011;2243;48.812;9.232;2024-03-22T01:49:34;17.60;;;11.80;;
4460;SDS011;2243;48.812;9.232;2024-03-22T01:52:04;14.90;;;11.20;;
4460;SDS011;2243;48.812;9.232;2024-03-22T01:54:34;25.03;;;11.60;;
4460;SDS011;2243;48.812;9.232;2024-03-22T01:57:04;15.90;;;10.27;;
4460;SDS011;2243;48.812;9.232;2024-03-22T01:59:35;18.63;;;11.30;;
4460;SDS011;2243;48.812;9.232;2024-03-22T02:02:05;18.90;;;12.70;;
4460;SDS011;2243;48.812;9.232;2024-03-22T02:04:35;15.03;;;11.30;;
4460;SDS011;2243;48.812;9.232;2024-03-22T02:07:05;16.63;;;11.30;;
4460;SDS011;2243;48.812;9.232;2024-03-22T02:09:35;14.97;;;11.60;;
4460;SDS011;2243;48.812;9.232;2024-03-22T02:12:06;15.53;;;11.13;;
4460;SDS011;2243;48.812;9.232;2024-03-22T02:14:37;12.17;;;10.20;;
4460;SDS011;2243;48.812;9.232;2024-03-22T02:17:07;15.27;;;11.10;;
4460;SDS011;2243;48.812;9.232;2024-03-22T02:19:37;15.93;;;10.00;;
4460;SDS011;2243;48.812;9.232;2024-03-22T02:22:07;13.90;;;10.37;;
4460;SDS011;2243;48.812;9.232;2024-03-22T02:24:37;12.57;;;9.90;;
4460;SDS011;2243;48.812;9.232;2024-03-22T02:27:07;13.20;;;9.73;;
4460;SDS011;2243;48.812;9.232;2024-03-22T02:29:37;16.57;;;10.50;;
4460;SDS011;2243;48.812;9.232;2024-03-22T02:32:07;12.67;;;9.97;;
4460;SDS011;2243;48.812;9.232;2024-03-22T02:34:37;11.80;;;9.33;;
4460;SDS011;2243;48.812;9.232;2024-03-22T02:37:07;14.10;;;9.93;;
4460;SDS011;2243;48.812;9.232;2024-03-22T02:39:37;12.17;;;9.70;;
4460;SDS011;2243;48.812;9.232;2024-03-22T02:42:07;17.33;;;11.43;;
4460;SDS011;2243;48.812;9.232;2024-03-22T02:44:37;11.80;;;9.03;;
4460;SDS011;2243;48.812;9.232;2024-03-22T02:47:11;13.63;;;10.20;;
4460;SDS011;2243;48.812;9.232;2024-03-22T02:49:43;16.40;;;10.70;;
4460;SDS011;2243;48.812;9.232;2024-03-22T02:52:13;19.47;;;11.77;;
4460;SDS011;2243;48.812;9.232;2024-03-22T02:54:43;15.67;;;12.10;;
4460;SDS011;2243;48.812;9.232;2024-03-22T02:57:13;22.50;;;15.00;;
4460;SDS011;2243;48.812;9.232;2024-03-22T02:59:43;22.73;;;15.23;;
4460;SDS011;2243;48.812;9.232;2024-03-22T03:02:13;23.20;;;15.50;;
4460;SDS011;2243;48.812;9.232;2024-03-22T03:04:43;23.90;;;16.33;;
4460;SDS011;2243;48.812;9.232;2024-03-22T03:07:13;25.77;;;14.70;;
4460;SDS011;2243;48.812;9.232;2024-03-22T03:09:43;21.70;;;14.70;;
4460;SDS011;2243;48.812;9.232;2024-03-22T03:12:13;24.93;;;16.70;;
4460;SDS011;2243;48.812;9.232;2024-03-22T03:14:43;20.33;;;14.70;;
4460;SDS011;2243;48.812;9.232;2024-03-22T03:17:13;22.60;;;15.80;;
4460;SDS011;2243;48.812;9.232;2024-03-22T03:19:44;22.63;;;14.57;;
4460;SDS011;2243;48.812;9.232;2024-03-22T03:22:14;25.37;;;15.50;;
4460;SDS011;2243;48.812;9.232;2024-03-22T03:24:44;22.67;;;14.80;;
4460;SDS011;2243;48.812;9.232;2024-03-22T03:27:14;26.17;;;17.30;;
4460;SDS011;2243;48.812;9.232;2024-03-22T03:29:44;22.50;;;16.77;;
4460;SDS011;2243;48.812;9.232;2024-03-22T03:32:14;21.27;;;15.53;;
4460;SDS011;2243;48.812;9.232;2024-03-22T03:34:44;23.10;;;16.17;;
4460;SDS011;2243;48.812;9.232;2024-03-22T03:37:14;23.83;;;15.33;;
4460;SDS011;2243;48.812;9.232;2024-03-22T03:39:44;24.80;;;16.87;;
4460;SDS011;2243;48.812;9.232;2024-03-22T03:42:14;24.63;;;15.67;;
4460;SDS011;2243;48.812;9.232;2024-03-22T03:44:44;23.90;;;16.10;;
4460;SDS011;2243;48.812;9.232;2024-03-22T03:47:14;22.13;;;14.60;;
4460;SDS011;2243;48.812;9.232;2024-03-22T03:49:45;21.77;;;15.80;;
4460;SDS011;2243;48.812;9.232;2024-03-22T03:52:15;23.50;;;14.93;;
4460;SDS011;2243;48.812;9.232;2024-03-22T03:54:45;27.90;;;16.60;;
4460;SDS011;2243;48.812;9.232;2024-03-22T03:57:15;20.90;;;13.87;;
4460;SDS011;2243;48.812;9.232;2024-03-22T03:59:45;23.00;;;15.50;;
4460;SDS011;2243;48.812;9.232;2024-03-22T04:02:15;26.53;;;16.50;;
4460;SDS011;2243;48.812;9.232;2024-03-22T04:04:45;24.17;;;15.20;;
4460;SDS011;2243;48.812;9.232;2024-03-22T04:07:15;20.10;;;13.80;;
4460;SDS011;2243;48.812;9.232;2024-03-22T04:09:45;19.37;;;13.67;;
4460;SDS011;2243;48.812;9.232;2024-03-22T04:12:15;17.83;;;13.00;;
4460;SDS011;2243;48.812;9.232;2024-03-22T04:14:45;21.83;;;13.50;;
4460;SDS011;2243;48.812;9.232;2024-03-22T04:17:15;22.37;;;13.73;;
4460;SDS011;2243;48.812;9.232;2024-03-22T04:19:45;13.90;;;10.87;;
4460;SDS011;2243;48.812;9.232;2024-03-22T04:22:15;16.20;;;12.40;;
4460;SDS011;2243;48.812;9.232;2024-03-22T04:24:45;14.87;;;11.67;;
4460;SDS011;2243;48.812;9.232;2024-03-22T04:27:15;22.47;;;12.60;;
4460;SDS011;2243;48.812;9.232;2024-03-22T04:29:47;18.47;;;13.20;;
4460;SDS011;2243;48.812;9.232;2024-03-22T04:32:17;20.97;;;13.27;;
4460;SDS011;2243;48.812;9.232;2024-03-22T04:34:47;19.93;;;13.50;;
4460;SDS011;2243;48.812;9.232;2024-03-22T04:37:17;19.83;;;13.83;;
4460;SDS011;2243;48.812;9.232;2024-03-22T04:39:47;17.70;;;14.67;;
4460;SDS011;2243;48.812;9.232;2024-03-22T04:42:17;19.03;;;14.87;;
4460;SDS011;2243;48.812;9.232;2024-03-22T04:44:47;24.03;;;15.37;;
4460;SDS011;2243;48.812;9.232;2024-03-22T04:47:17;22.70;;;15.23;;
4460;SDS011;2243;48.812;9.232;2024-03-22T04:49:46;22.43;;;15.03;;
4460;SDS011;2243;48.812;9.232;2024-03-22T04:52:16;20.43;;;15.10;;
4460;SDS011;2243;48.812;9.232;2024-03-22T04:54:46;20.93;;;13.40;;
4460;SDS011;2243;48.812;9.232;2024-03-22T04:57:16;21.07;;;14.50;;
4460;SDS011;2243;48.812;9.232;2024-03-22T04:59:46;26.83;;;14.60;;
4460;SDS011;2243;48.812;9.232;2024-03-22T05:02:16;20.17;;;15.20;;
4460;SDS011;2243;48.812;9.232;2024-03-22T05:04:47;19.30;;;14.30;;
4460;SDS011;2243;48.812;9.232;2024-03-22T05:07:18;21.33;;;14.23;;
4460;SDS011;2243;48.812;9.232;2024-03-22T05:09:48;18.10;;;14.10;;
4460;SDS011;2243;48.812;9.232;2024-03-22T05:12:18;21.93;;;14.00;;
4460;SDS011;2243;48.812;9.232;2024-03-22T05:14:48;19.20;;;13.40;;
4460;SDS011;2243;48.812;9.232;2024-03-22T05:17:18;20.00;;;13.80;;
4460;SDS011;2243;48.812;9.232;2024-03-22T05:19:48;18.40;;;12.47;;
4460;SDS011;2243;48.812;9.232;2024-03-22T05:22:18;22.83;;;13.90;;
4460;SDS011;2243;48.812;9.232;2024-03-22T05:24:49;20.97;;;13.87;;
4460;SDS011;2243;48.812;9.232;2024-03-22T05:27:20;23.30;;;15.57;;
4460;SDS011;2243;48.812;9.232;2024-03-22T05:29:51;20.93;;;14.70;;
4460;SDS011;2243;48.812;9.232;2024-03-22T05:32:21;20.07;;;13.67;;
4460;SDS011;2243;48.812;9.232;2024-03-22T05:34:52;17.60;;;14.03;;
4460;SDS011;2243;48.812;9.232;2024-03-22T05:37:22;23.77;;;14.30;;
4460;SDS011;2243;48.812;9.232;2024-03-22T05:39:52;18.67;;;13.90;;
4460;SDS011;2243;48.812;9.232;2024-03-22T05:42:25;21.43;;;14.67;;
4460;SDS011;2243;48.812;9.232;2024-03-22T05:44:58;20.90;;;14.87;;
4460;SDS011;2243;48.812;9.232;2024-03-22T05:47:28;19.87;;;13.90;;
4460;SDS011;2243;48.812;9.232;2024-03-22T05:50:00;19.57;;;14.03;;
4460;SDS011;2243;48.812;9.232;2024-03-22T05:52:30;24.77;;;14.60;;
4460;SDS011;2243;48.812;9.232;2024-03-22T05:55:01;22.50;;;14.40;;
4460;SDS011;2243;48.812;9.232;2024-03-22T05:57:31;20.73;;;15.33;;
4460;SDS011;2243;48.812;9.232;2024-03-22T06:00:02;25.27;;;13.63;;
4460;SDS011;2243;48.812;9.232;2024-03-22T06:02:32;28.80;;;17.13;;
4460;SDS011;2243;48.812;9.232;2024-03-22T06:05:03;21.10;;;14.20;;
4460;SDS011;2243;48.812;9.232;2024-03-22T06:07:33;21.90;;;14.60;;
4460;SDS011;2243;48.812;9.232;2024-03-22T06:10:10;27.57;;;16.83;;
4460;SDS011;2243;48.812;9.232;2024-03-22T06:12:40;26.80;;;14.50;;
4460;SDS011;2243;48.812;9.232;2024-03-22T06:15:10;20.50;;;13.70;;
4460;SDS011;2243;48.812;9.232;2024-03-22T06:17:40;22.90;;;15.60;;
4460;SDS011;2243;48.812;9.232;2024-03-22T06:20:12;22.13;;;16.13;;
4460;SDS011;2243;48.812;9.232;2024-03-22T06:22:42;17.43;;;13.27;;
4460;SDS011;2243;48.812;9.232;2024-03-22T06:25:12;21.37;;;14.70;;
4460;SDS011;2243;48.812;9.232;2024-03-22T06:27:42;18.40;;;13.60;;
4460;SDS011;2243;48.812;9.232;2024-03-22T06:30:12;19.40;;;13.80;;
4460;SDS011;2243;48.812;9.232;2024-03-22T06:32:42;25.47;;;16.13;;
4460;SDS011;2243;48.812;9.232;2024-03-22T06:35:13;18.30;;;13.70;;
4460;SDS011;2243;48.812;9.232;2024-03-22T06:37:43;22.57;;;14.87;;
4460;SDS011;2243;48.812;9.232;2024-03-22T06:40:13;22.70;;;16.50;;
4460;SDS011;2243;48.812;9.232;2024-03-22T06:42:43;17.97;;;14.20;;
4460;SDS011;2243;48.812;9.232;2024-03-22T06:45:13;26.60;;;16.23;;
4460;SDS011;2243;48.812;9.232;2024-03-22T06:47:44;19.27;;;14.50;;
4460;SDS011;2243;48.812;9.232;2024-03-22T06:50:14;19.20;;;13.90;;
4460;SDS011;2243;48.812;9.232;2024-03-22T06:52:46;22.60;;;15.07;;
4460;SDS011;2243;48.812;9.232;2024-03-22T06:55:17;21.30;;;15.20;;
4460;SDS011;2243;48.812;9.232;2024-03-22T06:57:47;19.53;;;13.63;;
4460;SDS011;2243;48.812;9.232;2024-03-22T07:00:18;22.20;;;13.87;;
4460;SDS011;2243;48.812;9.232;2024-03-22T07:02:48;16.57;;;13.03;;
4460;SDS011;2243;48.812;9.232;2024-03-22T07:05:19;17.50;;;13.80;;
4460;SDS011;2243;48.812;9.232;2024-03-22T07:07:49;17.13;;;13.43;;
4460;SDS011;2243;48.812;9.232;2024-03-22T07:10:25;22.70;;;13.57;;
4460;SDS011;2243;48.812;9.232;2024-03-22T07:12:57;17.53;;;13.23;;
4460;SDS011;2243;48.812;9.232;2024-03-22T07:15:27;15.97;;;13.03;;
4460;SDS011;2243;48.812;9.232;2024-03-22T07:17:57;17.60;;;12.47;;
4460;SDS011;2243;48.812;9.232;2024-03-22T07:20:27;21.50;;;13.80;;
4460;SDS011;2243;48.812;9.232;2024-03-22T07:22:57;20.20;;;13.70;;
4460;SDS011;2243;48.812;9.232;2024-03-22T07:25:27;18.30;;;13.10;;
4460;SDS011;2243;48.812;9.232;2024-03-22T07:27:57;16.30;;;13.10;;
4460;SDS011;2243;48.812;9.232;2024-03-22T07:30:27;22.40;;;13.47;;
4460;SDS011;2243;48.812;9.232;2024-03-22T07:32:57;20.20;;;13.47;;
4460;SDS011;2243;48.812;9.232;2024-03-22T07:35:27;20.33;;;13.97;;
4460;SDS011;2243;48.812;9.232;2024-03-22T07:37:57;17.13;;;11.70;;
4460;SDS011;2243;48.812;9.232;2024-03-22T07:40:26;16.60;;;12.40;;
4460;SDS011;2243;48.812;9.232;2024-03-22T07:42:56;17.57;;;11.97;;
4460;SDS011;2243;48.812;9.232;2024-03-22T07:45:28;15.60;;;11.97;;
4460;SDS011;2243;48.812;9.232;2024-03-22T07:47:58;13.67;;;11.67;;
4460;SDS011;2243;48.812;9.232;2024-03-22T07:50:28;16.80;;;11.43;;
4460;SDS011;2243;48.812;9.232;2024-03-22T07:52:58;16.80;;;12.00;;
4460;SDS011;2243;48.812;9.232;2024-03-22T07:55:29;13.60;;;11.70;;
4460;SDS011;2243;48.812;9.232;2024-03-22T07:57:59;14.47;;;11.77;;
4460;SDS011;2243;48.812;9.232;2024-03-22T08:00:29;11.97;;;9.73;;
4460;SDS011;2243;48.812;9.232;2024-03-22T08:03:00;17.13;;;12.60;;
4460;SDS011;2243;48.812;9.232;2024-03-22T08:05:30;16.30;;;11.77;;
4460;SDS011;2243;48.812;9.232;2024-03-22T08:08:00;12.83;;;11.47;;
4460;SDS011;2243;48.812;9.232;2024-03-22T08:10:30;16.30;;;11.10;;
4460;SDS011;2243;48.812;9.232;2024-03-22T08:13:00;12.40;;;10.40;;
4460;SDS011;2243;48.812;9.232;2024-03-22T08:15:30;11.70;;;9.90;;
4460;SDS011;2243;48.812;9.232;2024-03-22T08:18:00;14.13;;;10.70;;
4460;SDS011;2243;48.812;9.232;2024-03-22T08:20:30;15.63;;;11.87;;
4460;SDS011;2243;48.812;9.232;2024-03-22T08:23:03;13.10;;;10.47;;
4460;SDS011;2243;48.812;9.232;2024-03-22T08:25:33;15.70;;;10.90;;
4460;SDS011;2243;48.812;9.232;2024-03-22T08:28:03;15.73;;;11.10;;
4460;SDS011;2243;48.812;9.232;2024-03-22T08:30:33;14.40;;;10.60;;
4460;SDS011;2243;48.812;9.232;2024-03-22T08:33:07;14.77;;;10.37;;
4460;SDS011;2243;48.812;9.232;2024-03-22T08:35:37;12.80;;;10.30;;
4460;SDS011;2243;48.812;9.232;2024-03-22T08:38:08;14.87;;;11.13;;
4460;SDS011;2243;48.812;9.232;2024-03-22T08:40:39;13.20;;;10.80;;
4460;SDS011;2243;48.812;9.232;2024-03-22T08:43:10;12.43;;;11.00;;
4460;SDS011;2243;48.812;9.232;2024-03-22T08:45:40;16.20;;;10.70;;
4460;SDS011;2243;48.812;9.232;2024-03-22T08:48:09;11.63;;;10.13;;
4460;SDS011;2243;48.812;9.232;2024-03-22T08:50:42;14.23;;;10.47;;
4460;SDS011;2243;48.812;9.232;2024-03-22T08:53:12;19.80;;;10.47;;
4460;SDS011;2243;48.812;9.232;2024-03-22T08:55:46;13.73;;;10.57;;
4460;SDS011;2243;48.812;9.232;2024-03-22T08:58:17;14.47;;;9.80;;
4460;SDS011;2243;48.812;9.232;2024-03-22T09:00:47;15.50;;;9.90;;
4460;SDS011;2243;48.812;9.232;2024-03-22T09:03:16;11.33;;;9.80;;
4460;SDS011;2243;48.812;9.232;2024-03-22T09:05:47;12.60;;;10.00;;
4460;SDS011;2243;48.812;9.232;2024-03-22T09:08:18;12.63;;;9.10;;
4460;SDS011;2243;48.812;9.232;2024-03-22T09:10:50;13.83;;;9.93;;
4460;SDS011;2243;48.812;9.232;2024-03-22T09:13:20;14.00;;;9.53;;
4460;SDS011;2243;48.812;9.232;2024-03-22T09:15:56;12.40;;;9.83;;
4460;SDS011;2243;48.812;9.232;2024-03-22T09:18:29;12.87;;;10.30;;
4460;SDS011;2243;48.812;9.232;2024-03-22T09:21:00;9.83;;;8.73;;
4460;SDS011;2243;48.812;9.232;2024-03-22T09:23:30;10.20;;;9.10;;
4460;SDS011;2243;48.812;9.232;2024-03-22T09:26:00;11.20;;;8.50;;
4460;SDS011;2243;48.812;9.232;2024-03-22T09:28:30;13.60;;;9.07;;
4460;SDS011;2243;48.812;9.232;2024-03-22T09:31:04;8.87;;;7.97;;
4460;SDS011;2243;48.812;9.232;2024-03-22T09:33:35;11.33;;;8.33;;
4460;SDS011;2243;48.812;9.232;2024-03-22T09:36:05;13.10;;;8.60;;
4460;SDS011;2243;48.812;9.232;2024-03-22T09:38:35;12.53;;;8.93;;
4460;SDS011;2243;48.812;9.232;2024-03-22T09:41:06;11.23;;;8.90;;
4460;SDS011;2243;48.812;9.232;2024-03-22T09:43:36;12.43;;;8.40;;
4460;SDS011;2243;48.812;9.232;2024-03-22T09:46:08;9.57;;;8.17;;
4460;SDS011;2243;48.812;9.232;2024-03-22T09:48:38;13.60;;;7.93;;
4460;SDS011;2243;48.812;9.232;2024-03-22T09:51:11;10.33;;;7.90;;
4460;SDS011;2243;48.812;9.232;2024-03-22T09:53:45;11.83;;;7.27;;
4460;SDS011;2243;48.812;9.232;2024-03-22T09:56:18;9.33;;;6.90;;
4460;SDS011;2243;48.812;9.232;2024-03-22T09:58:51;7.17;;;6.47;;
4460;SDS011;2243;48.812;9.232;2024-03-22T10:01:21;9.17;;;6.30;;
4460;SDS011;2243;48.812;9.232;2024-03-22T10:03:53;13.10;;;7.77;;
4460;SDS011;2243;48.812;9.232;2024-03-22T10:06:24;13.10;;;8.80;;
4460;SDS011;2243;48.812;9.232;2024-03-22T10:08:54;8.80;;;7.20;;
4460;SDS011;2243;48.812;9.232;2024-03-22T10:11:28;10.40;;;7.80;;
4460;SDS011;2243;48.812;9.232;2024-03-22T10:13:59;12.67;;;6.40;;
4460;SDS011;2243;48.812;9.232;2024-03-22T10:16:36;7.07;;;6.30;;
4460;SDS011;2243;48.812;9.232;2024-03-22T10:19:08;10.23;;;6.83;;
4460;SDS011;2243;48.812;9.232;2024-03-22T10:21:38;7.37;;;6.67;;
4460;SDS011;2243;48.812;9.232;2024-03-22T10:24:08;7.10;;;6.47;;
4460;SDS011;2243;48.812;9.232;2024-03-22T10:26:38;8.40;;;6.60;;
4460;SDS011;2243;48.812;9.232;2024-03-22T10:29:08;7.90;;;6.37;;
4460;SDS011;2243;48.812;9.232;2024-03-22T10:31:40;5.73;;;5.07;;
4460;SDS011;2243;48.812;9.232;2024-03-22T10:34:11;8.63;;;5.10;;
4460;SDS011;2243;48.812;9.232;2024-03-22T10:36:43;7.13;;;5.00;;
4460;SDS011;2243;48.812;9.232;2024-03-22T10:39:16;7.07;;;6.57;;
4460;SDS011;2243;48.812;9.232;2024-03-22T10:41:50;4.63;;;4.23;;
4460;SDS011;2243;48.812;9.232;2024-03-22T10:44:20;7.37;;;6.03;;
4460;SDS011;2243;48.812;9.232;2024-03-22T10:46:50;10.30;;;6.20;;
4460;SDS011;2243;48.812;9.232;2024-03-22T10:49:25;5.87;;;5.40;;
4460;SDS011;2243;48.812;9.232;2024-03-22T10:51:57;6.23;;;5.63;;
4460;SDS011;2243;48.812;9.232;2024-03-22T10:54:32;5.73;;;5.23;;
4460;SDS011;2243;48.812;9.232;2024-03-22T10:57:07;5.33;;;4.87;;
4460;SDS011;2243;48.812;9.232;2024-03-22T10:59:43;5.60;;;5.10;;
4460;SDS011;2243;48.812;9.232;2024-03-22T11:02:15;3.77;;;3.50;;
4460;SDS011;2243;48.812;9.232;2024-03-22T11:04:53;4.50;;;4.20;;
4460;SDS011;2243;48.812;9.232;2024-03-22T11:07:29;4.77;;;4.30;;
4460;SDS011;2243;48.812;9.232;2024-03-22T11:10:03;5.20;;;4.70;;
4460;SDS011;2243;48.812;9.232;2024-03-22T11:12:37;5.20;;;4.40;;
4460;SDS011;2243;48.812;9.232;2024-03-22T11:15:10;4.50;;;4.10;;
4460;SDS011;2243;48.812;9.232;2024-03-22T11:17:42;5.10;;;4.40;;
4460;SDS011;2243;48.812;9.232;2024-03-22T11:20:12;5.27;;;4.53;;
4460;SDS011;2243;48.812;9.232;2024-03-22T11:22:42;7.83;;;4.83;;
4460;SDS011;2243;48.812;9.232;2024-03-22T11:25:12;4.40;;;4.07;;
4460;SDS011;2243;48.812;9.232;2024-03-22T11:27:42;4.20;;;3.90;;
4460;SDS011;2243;48.812;9.232;2024-03-22T11:30:12;4.47;;;4.10;;
4460;SDS011;2243;48.812;9.232;2024-03-22T11:32:43;5.57;;;4.30;;
4460;SDS011;2243;48.812;9.232;2024-03-22T11:35:14;6.57;;;4.33;;
4460;SDS011;2243;48.812;9.232;2024-03-22T11:37:44;9.07;;;5.90;;
4460;SDS011;2243;48.812;9.232;2024-03-22T11:40:14;4.50;;;4.10;;
4460;SDS011;2243;48.812;9.232;2024-03-22T11:42:49;5.47;;;3.30;;
4460;SDS011;2243;48.812;9.232;2024-03-22T11:45:21;5.07;;;4.57;;
4460;SDS011;2243;48.812;9.232;2024-03-22T11:47:52;4.83;;;4.27;;
4460;SDS011;2243;48.812;9.232;2024-03-22T11:50:22;5.70;;;4.53;;
4460;SDS011;2243;48.812;9.232;2024-03-22T11:52:52;5.37;;;4.53;;
4460;SDS011;2243;48.812;9.232;2024-03-22T11:55:26;5.03;;;4.30;;
4460;SDS011;2243;48.812;9.232;2024-03-22T11:57:59;6.93;;;5.20;;
4460;SDS011;2243;48.812;9.232;2024-03-22T12:00:29;6.53;;;4.90;;
4460;SDS011;2243;48.812;9.232;2024-03-22T12:03:00;4.83;;;4.37;;
4460;SDS011;2243;48.812;9.232;2024-03-22T12:05:33;6.37;;;4.70;;
4460;SDS011;2243;48.812;9.232;2024-03-22T12:08:03;4.30;;;3.90;;
4460;SDS011;2243;48.812;9.232;2024-03-22T12:10:34;4.83;;;3.80;;
4460;SDS011;2243;48.812;9.232;2024-03-22T12:13:04;6.20;;;4.10;;
4460;SDS011;2243;48.812;9.232;2024-03-22T12:15:34;5.33;;;4.37;;
4460;SDS011;2243;48.812;9.232;2024-03-22T12:18:04;5.57;;;4.60;;
4460;SDS011;2243;48.812;9.232;2024-03-22T12:20:34;8.50;;;4.13;;
4460;SDS011;2243;48.812;9.232;2024-03-22T12:23:04;4.73;;;3.47;;
4460;SDS011;2243;48.812;9.232;2024-03-22T12:25:34;4.10;;;3.63;;
4460;SDS011;2243;48.812;9.232;2024-03-22T12:28:04;4.50;;;4.17;;
4460;SDS011;2243;48.812;9.232;2024-03-22T12:30:34;6.27;;;4.73;;
4460;SDS011;2243;48.812;9.232;2024-03-22T12:33:04;4.53;;;4.17;;
4460;SDS011;2243;48.812;9.232;2024-03-22T12:35:39;4.60;;;3.93;;
4460;SDS011;2243;48.812;9.232;2024-03-22T12:38:10;5.70;;;4.20;;
4460;SDS011;2243;48.812;9.232;2024-03-22T12:40:47;4.67;;;3.63;;
4460;SDS011;2243;48.812;9.232;2024-03-22T12:43:17;4.00;;;3.70;;
4460;SDS011;2243;48.812;9.232;2024-03-22T12:45:47;9.70;;;4.70;;
4460;SDS011;2243;48.812;9.232;2024-03-22T12:48:17;8.53;;;4.30;;
4460;SDS011;2243;48.812;9.232;2024-03-22T12:50:48;5.63;;;4.57;;
4460;SDS011;2243;48.812;9.232;2024-03-22T12:53:18;4.83;;;4.43;;
4460;SDS011;2243;48.812;9.232;2024-03-22T12:55:48;4.57;;;4.17;;
4460;SDS011;2243;48.812;9.232;2024-03-22T12:58:18;6.87;;;5.20;;
4460;SDS011;2243;48.812;9.232;2024-03-22T13:00:48;6.23;;;5.40;;
4460;SDS011;2243;48.812;9.232;2024-03-22T13:03:18;5.33;;;4.87;;
4460;SDS011;2243;48.812;9.232;2024-03-22T13:05:48;4.67;;;4.30;;
4460;SDS011;2243;48.812;9.232;2024-03-22T13:08:19;5.00;;;4.03;;
4460;SDS011;2243;48.812;9.232;2024-03-22T13:10:49;4.33;;;3.93;;
4460;SDS011;2243;48.812;9.232;2024-03-22T13:13:19;7.80;;;4.03;;
4460;SDS011;2243;48.812;9.232;2024-03-22T13:15:49;4.43;;;4.00;;
4460;SDS011;2243;48.812;9.232;2024-03-22T13:18:19;4.77;;;4.07;;
4460;SDS011;2243;48.812;9.232;2024-03-22T13:20:49;4.90;;;4.43;;
4460;SDS011;2243;48.812;9.232;2024-03-22T13:23:19;4.67;;;3.93;;
4460;SDS011;2243;48.812;9.232;2024-03-22T13:25:49;8.90;;;5.07;;
4460;SDS011;2243;48.812;9.232;2024-03-22T13:28:19;6.67;;;4.87;;
4460;SDS011;2243;48.812;9.232;2024-03-22T13:31:04;4.07;;;3.77;;
4460;SDS011;2243;48.812;9.232;2024-03-22T13:33:37;4.87;;;4.30;;
4460;SDS011;2243;48.812;9.232;2024-03-22T13:36:07;3.93;;;3.63;;
4460;SDS011;2243;48.812;9.232;2024-03-22T13:38:37;5.83;;;4.03;;
4460;SDS011;2243;48.812;9.232;2024-03-22T13:41:07;4.70;;;4.27;;
4460;SDS011;2243;48.812;9.232;2024-03-22T13:43:38;6.33;;;3.80;;
4460;SDS011;2243;48.812;9.232;2024-03-22T13:46:09;3.57;;;3.27;;
4460;SDS011;2243;48.812;9.232;2024-03-22T13:48:44;6.33;;;3.70;;
4460;SDS011;2243;48.812;9.232;2024-03-22T13:51:14;3.97;;;3.20;;
4460;SDS011;2243;48.812;9.232;2024-03-22T13:53:44;5.47;;;3.67;;
4460;SDS011;2243;48.812;9.232;2024-03-22T13:56:14;4.80;;;4.13;;
4460;SDS011;2243;48.812;9.232;2024-03-22T13:58:44;7.80;;;4.23;;
4460;SDS011;2243;48.812;9.232;2024-03-22T14:01:13;4.53;;;3.77;;
4460;SDS011;2243;48.812;9.232;2024-03-22T14:03:44;5.60;;;3.70;;
4460;SDS011;2243;48.812;9.232;2024-03-22T14:06:14;4.00;;;3.70;;
4460;SDS011;2243;48.812;9.232;2024-03-22T14:08:44;8.53;;;4.53;;
4460;SDS011;2243;48.812;9.232;2024-03-22T14:11:14;4.80;;;3.90;;
4460;SDS011;2243;48.812;9.232;2024-03-22T14:13:44;6.23;;;4.57;;
4460;SDS011;2243;48.812;9.232;2024-03-22T14:16:14;5.33;;;4.13;;
4460;SDS011;2243;48.812;9.232;2024-03-22T14:18:43;7.20;;;4.30;;
4460;SDS011;2243;48.812;9.232;2024-03-22T14:21:13;5.97;;;4.27;;
4460;SDS011;2243;48.812;9.232;2024-03-22T14:23:48;7.43;;;3.83;;
4460;SDS011;2243;48.812;9.232;2024-03-22T14:26:19;4.00;;;3.47;;
4460;SDS011;2243;48.812;9.232;2024-03-22T14:28:49;4.10;;;3.60;;
4460;SDS011;2243;48.812;9.232;2024-03-22T14:31:20;7.17;;;3.47;;
4460;SDS011;2243;48.812;9.232;2024-03-22T14:33:50;5.40;;;3.63;;
4460;SDS011;2243;48.812;9.232;2024-03-22T14:36:20;6.90;;;3.47;;
4460;SDS011;2243;48.812;9.232;2024-03-22T14:38:50;3.47;;;3.20;;
4460;SDS011;2243;48.812;9.232;2024-03-22T14:41:20;3.87;;;3.47;;
4460;SDS011;2243;48.812;9.232;2024-03-22T14:43:50;3.13;;;2.83;;
4460;SDS011;2243;48.812;9.232;2024-03-22T14:46:23;4.80;;;2.83;;
4460;SDS011;2243;48.812;9.232;2024-03-22T14:48:55;2.40;;;2.20;;
4460;SDS011;2243;48.812;9.232;2024-03-22T14:51:25;3.00;;;2.40;;
4460;SDS011;2243;48.812;9.232;2024-03-22T14:53:56;2.10;;;2.00;;
4460;SDS011;2243;48.812;9.232;2024-03-22T14:56:26;3.20;;;3.00;;
4460;SDS011;2243;48.812;9.232;2024-03-22T14:58:56;4.20;;;2.57;;
4460;SDS011;2243;48.812;9.232;2024-03-22T15:01:26;2.13;;;1.93;;
4460;SDS011;2243;48.812;9.232;2024-03-22T15:03:56;1.90;;;1.80;;
4460;SDS011;2243;48.812;9.232;2024-03-22T15:06:26;3.07;;;2.87;;
4460;SDS011;2243;48.812;9.232;2024-03-22T15:08:59;1.97;;;1.77;;
4460;SDS011;2243;48.812;9.232;2024-03-22T15:11:34;2.70;;;2.33;;
4460;SDS011;2243;48.812;9.232;2024-03-22T15:14:04;1.77;;;1.67;;
4460;SDS011;2243;48.812;9.232;2024-03-22T15:16:35;2.27;;;2.17;;
4460;SDS011;2243;48.812;9.232;2024-03-22T15:19:05;3.30;;;2.37;;